Time;durP1;ratioP1;P1;durP2;ratioP2;P2;SDS_P1;SDS_P2;PMS_P1;PMS_P2;Temp;Humidity;BMP_temperature;BMP_pressure;BME280_temperature;BME280_humidity;BME280_pressure;Samples;Min_cycle;Max_cycle;Signal;HPM_P1;HPM_P2
2022/11/06 00:01:41;;;;;;;6.53;3.15;;;9.50;99.90;;;;;;5069218;28;20123;-84
2022/11/06 00:04:08;;;;;;;8.05;3.60;;;9.60;99.90;;;;;;5068684;28;20044;-83
2022/11/06 00:06:49;;;;;;;5.68;3.25;;;9.60;99.90;;;;;;5085735;28;20090;-84
2022/11/06 00:09:18;;;;;;;10.10;3.40;;;9.60;99.90;;;;;;5085990;28;20045;-83
2022/11/06 00:11:46;;;;;;;9.45;3.33;;;9.60;99.90;;;;;;5119392;28;20089;-82
2022/11/06 00:14:13;;;;;;;7.97;3.20;;;9.60;99.90;;;;;;5119308;28;20136;-84
2022/11/06 00:16:41;;;;;;;7.55;3.17;;;9.60;99.90;;;;;;5119249;28;20048;-83
2022/11/06 00:19:09;;;;;;;6.18;3.38;;;9.60;99.90;;;;;;5118982;28;20045;-83
2022/11/06 00:21:36;;;;;;;6.22;3.08;;;9.60;99.90;;;;;;5101759;28;20493;-83
2022/11/06 00:24:05;;;;;;;7.50;3.10;;;9.60;99.90;;;;;;5068723;28;20049;-83
2022/11/06 00:26:33;;;;;;;5.82;2.65;;;9.60;99.90;;;;;;5085887;28;20124;-83
2022/11/06 00:29:00;;;;;;;9.27;3.55;;;9.60;99.90;;;;;;5085450;28;20541;-84
2022/11/06 00:31:30;;;;;;;6.97;3.30;;;9.60;99.90;;;;;;5085626;28;20040;-84
2022/11/06 00:33:58;;;;;;;7.75;3.53;;;9.60;99.90;;;;;;5068731;28;20095;-83
2022/11/06 00:36:29;;;;;;;12.15;3.50;;;9.60;99.90;;;;;;5085403;28;20040;-83
2022/11/06 00:38:57;;;;;;;10.45;3.30;;;9.60;99.90;;;;;;5084616;28;20037;-83
2022/11/06 00:41:24;;;;;;;12.57;3.72;;;9.60;99.90;;;;;;5085363;28;20041;-83
2022/11/06 00:43:54;;;;;;;7.28;3.15;;;9.50;99.90;;;;;;5068649;28;20037;-83
2022/11/06 00:46:21;;;;;;;12.23;3.47;;;9.50;99.90;;;;;;5069209;28;20044;-84
2022/11/06 00:48:48;;;;;;;8.15;3.22;;;9.40;99.90;;;;;;5118793;28;20512;-83
2022/11/06 00:51:31;;;;;;;9.13;3.55;;;9.40;99.90;;;;;;5068388;28;20638;-83
2022/11/06 00:53:59;;;;;;;6.88;3.58;;;9.50;99.90;;;;;;5118769;28;20045;-83
2022/11/06 00:56:27;;;;;;;6.22;3.00;;;9.40;99.90;;;;;;5068760;28;20568;-82
2022/11/06 00:58:55;;;;;;;7.05;3.10;;;9.30;99.90;;;;;;5068262;28;20048;-83
2022/11/06 01:01:27;;;;;;;11.80;3.58;;;9.30;99.90;;;;;;5119060;28;20048;-83
2022/11/06 01:04:00;;;;;;;9.57;3.22;;;9.30;99.90;;;;;;5068395;28;20448;-83
2022/11/06 01:06:39;;;;;;;6.78;3.40;;;9.30;99.90;;;;;;5118848;28;20099;-83
2022/11/06 01:09:06;;;;;;;7.90;3.60;;;9.30;99.90;;;;;;5119115;28;20076;-83
2022/11/06 01:11:36;;;;;;;7.35;3.40;;;9.20;99.90;;;;;;5118535;28;20045;-83
2022/11/06 01:14:05;;;;;;;5.85;3.25;;;9.20;99.90;;;;;;5068467;28;20118;-83
2022/11/06 01:16:32;;;;;;;6.47;3.30;;;9.10;99.90;;;;;;5118768;28;20431;-83
2022/11/06 01:18:59;;;;;;;6.93;3.33;;;9.20;99.90;;;;;;5085053;28;20071;-83
2022/11/06 01:21:28;;;;;;;9.07;3.92;;;9.10;99.90;;;;;;5084837;28;20053;-83
2022/11/06 01:23:58;;;;;;;9.10;3.92;;;9.10;99.90;;;;;;5068049;28;20136;-82
2022/11/06 01:26:26;;;;;;;6.70;3.17;;;9.10;99.90;;;;;;5101788;28;20123;-83
2022/11/06 01:28:53;;;;;;;8.45;4.43;;;9.10;99.90;;;;;;5068303;28;20041;-83
2022/11/06 01:31:24;;;;;;;7.53;3.72;;;9.00;99.90;;;;;;5084441;28;20037;-83
2022/11/06 01:33:51;;;;;;;9.05;3.67;;;9.20;99.90;;;;;;5118560;28;20086;-83
2022/11/06 01:36:19;;;;;;;10.45;3.88;;;9.00;99.90;;;;;;5117976;28;20041;-83
2022/11/06 01:38:49;;;;;;;8.52;3.88;;;9.00;99.90;;;;;;5068285;28;20045;-83
2022/11/06 01:41:37;;;;;;;11.35;3.38;;;9.00;99.90;;;;;;5102592;28;20056;-83
2022/11/06 01:44:24;;;;;;;7.50;3.40;;;9.00;99.90;;;;;;5071586;28;20071;-83
2022/11/06 01:46:51;;;;;;;8.20;3.67;;;9.00;99.90;;;;;;5105370;28;20386;-83
2022/11/06 01:49:17;;;;;;;7.20;3.80;;;9.00;99.90;;;;;;5104834;28;20037;-83
2022/11/06 01:51:53;;;;;;;8.27;3.63;;;8.90;99.90;;;;;;5105047;28;20120;-83
2022/11/06 01:54:22;;;;;;;10.90;4.10;;;8.90;99.90;;;;;;5104530;28;20420;-83
2022/11/06 01:56:52;;;;;;;10.90;4.20;;;8.90;99.90;;;;;;5072069;28;20044;-83
2022/11/06 01:59:23;;;;;;;9.40;3.75;;;8.90;99.90;;;;;;5071444;28;20560;-83
2022/11/06 02:01:50;;;;;;;10.90;4.10;;;8.90;99.90;;;;;;5104841;28;20048;-82
2022/11/06 02:04:31;;;;;;;9.00;4.20;;;8.90;99.90;;;;;;5071424;28;20048;-83
2022/11/06 02:06:59;;;;;;;12.15;4.15;;;8.90;99.90;;;;;;5071813;28;20075;-83
2022/11/06 02:09:28;;;;;;;9.43;3.92;;;9.00;99.90;;;;;;5088003;28;20083;-83
2022/11/06 02:12:40;;;;;;;9.73;3.97;;;8.90;99.90;;;;;;5071613;28;20033;-83
2022/11/06 02:15:19;;;;;;;9.18;4.13;;;8.90;99.90;;;;;;5053450;28;20152;-84
2022/11/06 02:18:23;;;;;;;10.65;4.32;;;8.90;99.90;;;;;;5069007;28;20051;-83
2022/11/06 02:21:08;;;;;;;9.32;4.30;;;8.90;99.90;;;;;;5104481;28;20057;-83
2022/11/06 02:24:19;;;;;;;7.70;3.72;;;8.90;99.90;;;;;;5104487;28;20051;-83
2022/11/06 02:26:56;;;;;;;10.52;3.88;;;8.90;99.90;;;;;;5066190;28;20049;-83
2022/11/06 02:29:37;;;;;;;8.07;3.42;;;8.90;99.90;;;;;;5121311;28;20080;-84
2022/11/06 02:32:14;;;;;;;10.18;4.28;;;8.90;99.90;;;;;;5121299;28;20044;-82
2022/11/06 02:34:43;;;;;;;10.20;3.85;;;8.90;99.90;;;;;;5085957;28;20056;-83
2022/11/06 02:37:15;;;;;;;10.70;3.95;;;8.90;99.90;;;;;;5070908;28;20052;-83
2022/11/06 02:39:45;;;;;;;7.45;4.20;;;8.80;99.90;;;;;;5071084;28;20037;-83
2022/11/06 02:42:16;;;;;;;7.80;4.25;;;8.90;99.90;;;;;;5120934;28;20045;-83
2022/11/06 02:44:45;;;;;;;9.38;4.30;;;8.90;99.90;;;;;;5104114;28;20414;-84
2022/11/06 02:47:15;;;;;;;8.57;4.60;;;8.90;99.90;;;;;;5070769;28;20099;-82
2022/11/06 02:49:47;;;;;;;9.00;3.70;;;9.00;99.90;;;;;;5121176;28;20044;-84
2022/11/06 02:53:01;;;;;;;7.47;3.50;;;8.90;99.90;;;;;;5069669;28;20033;-83
2022/11/06 02:55:34;;;;;;;8.85;4.05;;;8.90;99.90;;;;;;5075966;28;20076;-84
2022/11/06 02:58:07;;;;;;;13.02;4.07;;;8.90;99.90;;;;;;5070806;28;20041;-84
2022/11/06 03:00:35;;;;;;;11.73;4.15;;;8.90;99.90;;;;;;5070469;28;20397;-84
2022/11/06 03:03:10;;;;;;;10.30;4.10;;;8.90;99.90;;;;;;5103678;28;20048;-84
2022/11/06 03:05:55;;;;;;;8.23;4.38;;;8.80;99.90;;;;;;5120711;28;20480;-84
2022/11/06 03:08:39;;;;;;;8.15;4.05;;;8.80;99.90;;;;;;5077745;28;20036;-84
2022/11/06 03:11:23;;;;;;;8.55;3.83;;;8.80;99.90;;;;;;5076088;28;20037;-84
2022/11/06 03:14:13;;;;;;;9.15;4.07;;;8.80;99.90;;;;;;5086871;28;20389;-83
2022/11/06 03:16:57;;;;;;;9.45;4.18;;;8.80;99.90;;;;;;5050245;28;20096;-83
2022/11/06 03:19:47;;;;;;;7.45;3.63;;;8.80;99.90;;;;;;5099883;28;20045;-84
2022/11/06 03:22:25;;;;;;;12.50;3.78;;;8.80;99.90;;;;;;5050141;28;20476;-83
2022/11/06 03:25:14;;;;;;;11.10;4.30;;;8.70;99.90;;;;;;5055647;28;20517;-84
2022/11/06 03:28:05;;;;;;;10.95;3.85;;;8.80;99.90;;;;;;5070058;28;20045;-83
2022/11/06 03:30:37;;;;;;;9.25;3.78;;;8.70;99.90;;;;;;5103056;28;20041;-84
2022/11/06 03:33:31;;;;;;;9.27;4.18;;;8.80;99.90;;;;;;5069810;28;20055;-83
2022/11/06 03:36:06;;;;;;;7.72;3.58;;;8.80;99.90;;;;;;5069467;28;20497;-84
2022/11/06 03:38:38;;;;;;;12.23;3.97;;;8.80;99.90;;;;;;5102774;28;20128;-83
2022/11/06 03:41:38;;;;;;;8.93;3.63;;;8.80;99.90;;;;;;5069729;28;20041;-84
2022/11/06 03:44:10;;;;;;;8.95;4.10;;;8.70;99.90;;;;;;5065574;28;20513;-84
2022/11/06 03:46:42;;;;;;;8.70;3.65;;;8.70;99.90;;;;;;5069676;28;20041;-84
2022/11/06 03:49:14;;;;;;;9.40;4.22;;;8.70;99.90;;;;;;5069706;28;20463;-84
2022/11/06 03:51:51;;;;;;;10.13;3.80;;;8.70;99.90;;;;;;5069236;28;20520;-84
2022/11/06 03:54:29;;;;;;;8.10;3.47;;;8.70;99.90;;;;;;5069613;28;20060;-83
2022/11/06 03:57:03;;;;;;;10.30;3.80;;;8.70;99.90;;;;;;5119434;28;20501;-83
2022/11/06 03:59:40;;;;;;;7.38;3.55;;;8.70;99.90;;;;;;5069366;28;20049;-83
2022/11/06 04:02:07;;;;;;;7.88;3.45;;;8.60;99.90;;;;;;5119726;28;20052;-83
2022/11/06 04:04:40;;;;;;;9.50;3.78;;;8.60;99.90;;;;;;5102223;28;20037;-83
2022/11/06 04:07:17;;;;;;;12.38;3.63;;;8.60;99.90;;;;;;5069359;28;20044;-84
2022/11/06 04:15:30;;;;;;;9.52;3.58;;;8.60;99.90;;;;;;5119164;28;20049;-84
2022/11/06 04:17:56;;;;;;;8.20;3.90;;;8.60;99.90;;;;;;5069692;28;20068;-84
2022/11/06 04:23:25;;;;;;;14.32;3.60;;;8.60;99.90;;;;;;5119684;28;20080;-84
2022/11/06 04:26:36;;;;;;;9.55;3.55;;;8.60;99.90;;;;;;5069352;28;20130;-84
2022/11/06 04:29:17;;;;;;;8.63;3.25;;;8.60;99.90;;;;;;5078727;28;20050;-84
2022/11/06 04:31:50;;;;;;;7.78;3.58;;;8.60;99.90;;;;;;5049083;28;20124;-84
2022/11/06 04:34:34;;;;;;;6.75;3.35;;;8.60;99.90;;;;;;5065650;28;20138;-84
2022/11/06 04:37:09;;;;;;;8.95;3.22;;;8.60;99.90;;;;;;5051868;28;20444;-84
2022/11/06 04:40:01;;;;;;;6.95;3.30;;;8.60;99.90;;;;;;5118937;28;20489;-84
2022/11/06 04:42:42;;;;;;;9.63;3.55;;;8.60;99.90;;;;;;5118788;28;20044;-84
2022/11/06 04:45:26;;;;;;;7.57;3.25;;;8.60;99.90;;;;;;5069272;28;20045;-84
2022/11/06 04:47:54;;;;;;;7.07;3.42;;;8.60;99.90;;;;;;5068993;28;20043;-84
2022/11/06 04:50:23;;;;;;;8.90;3.40;;;8.60;99.90;;;;;;5085540;28;20541;-85
2022/11/06 04:52:51;;;;;;;7.35;3.10;;;8.60;99.90;;;;;;5085380;28;20401;-84
2022/11/06 04:55:20;;;;;;;8.07;3.10;;;8.60;99.90;;;;;;5068915;28;20033;-84
2022/11/06 04:57:47;;;;;;;9.77;3.10;;;8.60;99.90;;;;;;5068387;28;20516;-84
2022/11/06 05:00:14;;;;;;;5.85;2.97;;;8.60;99.90;;;;;;5085274;28;20116;-84
2022/11/06 05:02:41;;;;;;;11.90;3.42;;;8.60;99.90;;;;;;5085434;28;20041;-84
2022/11/06 05:05:08;;;;;;;7.57;3.17;;;8.60;99.90;;;;;;5085664;28;20178;-84
2022/11/06 05:07:34;;;;;;;6.35;3.17;;;8.60;99.90;;;;;;5068702;28;20108;-83
2022/11/06 05:10:01;;;;;;;10.63;3.60;;;8.60;99.90;;;;;;5068901;28;20037;-84
2022/11/06 05:12:28;;;;;;;10.00;3.58;;;8.60;99.90;;;;;;5068809;28;20044;-84
2022/11/06 05:14:54;;;;;;;6.32;3.03;;;8.60;99.90;;;;;;5085119;28;20048;-84
2022/11/06 05:17:21;;;;;;;7.75;3.20;;;8.60;99.90;;;;;;5105112;28;20512;-84
2022/11/06 05:19:48;;;;;;;8.15;3.03;;;8.60;99.90;;;;;;5072476;28;20041;-84
2022/11/06 05:25:00;;;;;;;9.52;3.05;;;8.60;99.90;;;;;;5089072;28;20049;-84
2022/11/06 05:27:26;;;;;;;8.30;3.28;;;8.60;99.90;;;;;;5039746;28;20147;-84
2022/11/06 05:29:53;;;;;;;5.15;2.70;;;8.60;99.90;;;;;;5071973;28;20048;-84
2022/11/06 05:32:19;;;;;;;11.65;3.15;;;8.60;99.90;;;;;;5072503;28;20048;-84
2022/11/06 05:34:46;;;;;;;6.43;2.55;;;8.60;99.90;;;;;;5071821;28;20041;-84
2022/11/06 05:37:13;;;;;;;7.65;3.00;;;8.60;99.90;;;;;;5039773;28;20070;-84
2022/11/06 05:39:39;;;;;;;7.38;2.72;;;8.60;99.90;;;;;;5055540;28;20040;-84
2022/11/06 05:42:06;;;;;;;6.90;2.78;;;8.60;99.90;;;;;;5072454;28;20040;-84
2022/11/06 05:44:33;;;;;;;6.38;2.90;;;8.60;99.90;;;;;;5105289;28;20068;-83
2022/11/06 05:46:59;;;;;;;8.80;3.00;;;8.60;99.90;;;;;;5088829;28;20064;-84
2022/11/06 05:49:26;;;;;;;7.03;2.92;;;8.70;99.90;;;;;;5088644;28;20045;-84
2022/11/06 05:51:53;;;;;;;6.13;3.03;;;8.70;99.90;;;;;;5088334;28;20055;-84
2022/11/06 05:54:19;;;;;;;8.85;3.10;;;8.60;99.90;;;;;;5122101;28;20041;-84
2022/11/06 05:56:46;;;;;;;6.18;2.70;;;8.60;99.90;;;;;;5104988;28;20041;-84
2022/11/06 05:59:12;;;;;;;9.73;2.92;;;8.60;99.90;;;;;;5105656;28;20048;-84
2022/11/06 06:01:39;;;;;;;4.28;2.55;;;8.60;99.90;;;;;;5071682;28;20045;-84
2022/11/06 06:04:06;;;;;;;8.00;2.90;;;8.60;99.90;;;;;;5088082;28;20045;-84
2022/11/06 06:06:33;;;;;;;7.78;2.80;;;8.60;99.90;;;;;;5105056;28;20045;-84
2022/11/06 06:08:59;;;;;;;7.25;3.17;;;8.70;99.90;;;;;;5087781;28;20037;-84
2022/11/06 06:11:26;;;;;;;9.38;2.60;;;8.70;99.90;;;;;;5088028;28;20459;-84
2022/11/06 06:13:52;;;;;;;12.52;2.60;;;8.70;99.90;;;;;;5070684;28;20041;-84
2022/11/06 06:16:19;;;;;;;5.93;2.85;;;8.70;99.90;;;;;;5055092;28;20036;-84
2022/11/06 06:18:49;;;;;;;8.13;2.50;;;8.70;99.90;;;;;;5071360;28;20072;-84
2022/11/06 06:21:16;;;;;;;8.27;2.50;;;8.70;99.90;;;;;;5054745;28;20052;-84
2022/11/06 06:23:43;;;;;;;5.75;2.42;;;8.70;99.90;;;;;;5070782;28;20045;-84
2022/11/06 06:26:10;;;;;;;8.02;2.45;;;9.10;99.90;;;;;;5054839;28;20132;-84
2022/11/06 06:28:36;;;;;;;6.97;2.90;;;8.70;99.90;;;;;;5086930;28;20045;-84
2022/11/06 06:31:05;;;;;;;4.15;2.00;;;9.20;99.90;;;;;;5053967;28;20404;-84
2022/11/06 06:33:32;;;;;;;8.70;2.60;;;8.70;99.90;;;;;;5071016;28;20083;-84
2022/11/06 06:36:03;;;;;;;8.85;2.50;;;8.70;99.90;;;;;;5087461;28;20049;-84
2022/11/06 06:38:30;;;;;;;5.50;2.20;;;8.70;99.90;;;;;;5121027;28;20041;-82
2022/11/06 06:41:04;;;;;;;7.22;2.10;;;8.90;99.90;;;;;;5075469;28;20132;-84
2022/11/06 06:43:32;;;;;;;7.90;2.00;;;8.70;99.90;;;;;;5083689;28;20112;-84
2022/11/06 06:46:04;;;;;;;7.40;2.00;;;8.80;99.90;;;;;;5083306;28;20064;-84
2022/11/06 06:48:31;;;;;;;7.50;2.63;;;8.70;99.90;;;;;;5100752;28;20486;-84
2022/11/06 06:50:59;;;;;;;8.27;2.95;;;8.70;99.90;;;;;;5091854;28;20043;-84
2022/11/06 06:53:26;;;;;;;7.75;2.00;;;8.70;99.90;;;;;;5104050;28;20127;-84
2022/11/06 06:55:53;;;;;;;6.15;2.17;;;8.70;99.90;;;;;;5054370;28;20040;-84
2022/11/06 06:58:20;;;;;;;7.63;2.00;;;8.70;99.90;;;;;;5087170;28;20044;-84
2022/11/06 07:00:46;;;;;;;5.50;1.95;;;8.80;99.90;;;;;;5070419;28;20091;-84
2022/11/06 07:03:13;;;;;;;12.90;1.80;;;8.80;99.90;;;;;;5086580;28;20094;-84
2022/11/06 07:05:40;;;;;;;5.97;2.00;;;8.80;99.90;;;;;;5070575;28;20041;-84
2022/11/06 07:08:06;;;;;;;6.55;2.15;;;8.80;99.90;;;;;;5103530;28;20124;-84
2022/11/06 07:10:33;;;;;;;7.28;2.38;;;8.80;99.90;;;;;;5105378;28;20037;-84
2022/11/06 07:13:04;;;;;;;4.22;1.90;;;8.80;99.90;;;;;;5050597;28;20042;-84
2022/11/06 07:15:31;;;;;;;7.07;2.58;;;8.80;99.90;;;;;;5084995;28;20086;-84
2022/11/06 07:18:03;;;;;;;6.68;2.28;;;8.90;99.90;;;;;;5090122;28;20400;-84
2022/11/06 07:20:30;;;;;;;8.93;2.28;;;8.90;99.90;;;;;;5087934;28;20057;-83
2022/11/06 07:22:57;;;;;;;12.27;2.60;;;8.90;99.90;;;;;;5069924;28;20044;-84
2022/11/06 07:25:25;;;;;;;8.30;2.58;;;9.00;99.90;;;;;;5044501;28;20040;-81
2022/11/06 07:27:51;;;;;;;4.53;2.00;;;9.00;99.90;;;;;;5059797;28;20453;-83
2022/11/06 07:30:18;;;;;;;5.60;1.80;;;9.00;99.90;;;;;;5074241;28;20125;-84
2022/11/06 07:32:44;;;;;;;7.40;2.30;;;9.00;99.90;;;;;;5053198;28;20130;-84
2022/11/06 07:35:11;;;;;;;5.63;1.88;;;9.10;99.90;;;;;;5086344;28;20115;-84
2022/11/06 07:37:38;;;;;;;6.40;2.28;;;9.10;99.90;;;;;;5113855;28;20036;-84
2022/11/06 07:40:05;;;;;;;11.55;2.40;;;9.20;99.90;;;;;;5057925;28;20051;-84
2022/11/06 07:42:32;;;;;;;6.07;1.70;;;9.20;99.90;;;;;;5043371;28;20033;-84
2022/11/06 07:44:59;;;;;;;6.57;2.25;;;9.20;99.90;;;;;;5070805;28;20516;-84
2022/11/06 07:47:26;;;;;;;5.57;1.92;;;9.20;99.90;;;;;;5041364;28;20029;-84
2022/11/06 07:49:53;;;;;;;7.07;2.00;;;9.20;99.90;;;;;;5052921;28;20041;-84
2022/11/06 07:52:19;;;;;;;5.43;1.60;;;9.20;99.90;;;;;;5070376;28;20083;-84
2022/11/06 07:54:46;;;;;;;5.55;1.67;;;9.30;99.90;;;;;;5078531;28;20044;-84
2022/11/06 07:57:13;;;;;;;7.70;1.88;;;9.40;99.90;;;;;;5089434;28;20131;-84
2022/11/06 07:59:41;;;;;;;4.40;1.70;;;9.30;99.90;;;;;;5064442;28;20048;-84
2022/11/06 08:02:11;;;;;;;4.25;1.45;;;9.30;99.90;;;;;;5084921;28;20072;-84
2022/11/06 08:04:38;;;;;;;3.17;1.52;;;9.40;99.90;;;;;;5119180;28;20047;-83
2022/11/06 08:07:05;;;;;;;5.75;1.90;;;9.40;99.90;;;;;;5103764;28;20033;-83
2022/11/06 08:09:32;;;;;;;4.75;1.80;;;9.40;99.90;;;;;;5100731;28;20041;-85
2022/11/06 08:11:59;;;;;;;5.03;1.80;;;9.40;99.90;;;;;;5036191;28;20162;-84
2022/11/06 08:14:25;;;;;;;4.32;1.75;;;9.40;99.90;;;;;;5069353;28;20830;-82
2022/11/06 08:16:52;;;;;;;9.52;2.00;;;9.90;99.90;;;;;;5085760;28;20124;-84
2022/11/06 08:19:19;;;;;;;7.43;1.67;;;9.50;99.90;;;;;;5095698;28;20047;-83
2022/11/06 08:21:45;;;;;;;5.32;1.67;;;9.50;99.90;;;;;;5045736;28;20132;-84
2022/11/06 08:24:12;;;;;;;8.70;2.05;;;9.80;99.90;;;;;;5020231;28;20037;-84
2022/11/06 08:26:39;;;;;;;5.93;1.70;;;9.60;99.90;;;;;;5052021;28;20524;-83
2022/11/06 08:29:05;;;;;;;6.15;1.75;;;9.60;99.90;;;;;;5052126;28;20033;-83
2022/11/06 08:31:32;;;;;;;5.00;1.65;;;9.60;99.90;;;;;;5036139;28;20037;-83
2022/11/06 08:33:59;;;;;;;7.30;1.70;;;9.70;99.90;;;;;;5068119;28;20043;-83
2022/11/06 08:36:25;;;;;;;4.25;1.70;;;9.70;99.90;;;;;;5052175;28;20569;-82
2022/11/06 08:38:52;;;;;;;7.97;1.88;;;9.90;99.90;;;;;;5102385;28;20090;-83
2022/11/06 08:41:19;;;;;;;5.90;1.77;;;9.80;99.90;;;;;;5101272;28;20103;-83
2022/11/06 08:43:50;;;;;;;5.38;1.80;;;9.80;99.90;;;;;;5065950;28;20907;-83
2022/11/06 08:46:17;;;;;;;5.20;1.55;;;9.80;99.90;;;;;;5084056;28;20091;-83
2022/11/06 08:48:43;;;;;;;3.10;1.52;;;9.80;99.90;;;;;;5062251;28;20048;-82
2022/11/06 08:51:10;;;;;;;4.65;1.55;;;9.80;99.90;;;;;;5060350;28;20102;-83
2022/11/06 08:53:37;;;;;;;4.88;1.55;;;9.80;99.90;;;;;;5056251;28;20631;-83
2022/11/06 08:56:04;;;;;;;5.78;1.45;;;9.80;99.90;;;;;;5071397;28;20080;-83
2022/11/06 08:58:30;;;;;;;5.95;1.80;;;9.80;99.90;;;;;;5058430;28;20071;-83
2022/11/06 09:00:57;;;;;;;6.43;1.92;;;9.90;99.90;;;;;;5076026;28;20036;-82
2022/11/06 09:03:24;;;;;;;7.55;1.50;;;9.90;99.90;;;;;;5071831;28;20413;-83
2022/11/06 09:05:50;;;;;;;8.35;1.80;;;10.00;99.90;;;;;;5046528;28;20041;-83
2022/11/06 09:08:17;;;;;;;3.63;1.40;;;9.90;99.90;;;;;;5082802;28;20711;-83
2022/11/06 09:10:44;;;;;;;5.68;1.63;;;9.90;99.90;;;;;;5072072;28;20044;-83
2022/11/06 09:13:11;;;;;;;6.60;2.15;;;9.90;99.90;;;;;;5072956;28;20046;-84
2022/11/06 09:15:38;;;;;;;9.32;1.73;;;9.90;99.90;;;;;;5078099;28;20098;-83
2022/11/06 09:18:04;;;;;;;5.85;2.55;;;9.90;99.90;;;;;;5114440;28;20040;-82
2022/11/06 09:20:31;;;;;;;4.68;1.67;;;9.90;99.90;;;;;;5073278;28;20140;-86
2022/11/06 09:23:03;;;;;;;4.20;1.48;;;9.90;99.90;;;;;;5084220;28;20040;-84
2022/11/06 09:25:30;;;;;;;6.35;1.67;;;9.90;99.90;;;;;;5052082;28;20050;-84
2022/11/06 09:27:57;;;;;;;6.80;1.80;;;9.90;99.90;;;;;;5086434;28;20099;-84
2022/11/06 09:30:26;;;;;;;4.25;1.17;;;9.90;99.90;;;;;;5067142;28;20117;-84
2022/11/06 09:32:56;;;;;;;5.90;1.75;;;9.90;99.90;;;;;;5082887;28;20106;-84
2022/11/06 09:35:25;;;;;;;3.70;1.42;;;9.90;99.90;;;;;;5079643;28;20132;-84
2022/11/06 09:37:52;;;;;;;6.97;2.20;;;9.90;99.90;;;;;;5079325;28;20123;-84
2022/11/06 09:40:35;;;;;;;5.30;1.60;;;10.00;99.90;;;;;;5043621;28;20163;-83
2022/11/06 09:43:02;;;;;;;4.10;1.55;;;10.00;99.90;;;;;;5064563;28;20029;-85
2022/11/06 09:45:31;;;;;;;6.53;1.60;;;10.00;99.90;;;;;;5072951;28;20508;-84
2022/11/06 09:48:32;;;;;;;5.80;1.55;;;10.00;99.90;;;;;;5068300;28;20047;-85
2022/11/06 09:51:02;;;;;;;5.82;1.85;;;10.20;99.90;;;;;;5043625;28;20504;-85
2022/11/06 09:53:38;;;;;;;6.78;2.00;;;10.20;99.90;;;;;;5071439;28;20045;-84
2022/11/06 09:56:09;;;;;;;5.10;1.60;;;10.30;99.90;;;;;;5070576;28;20446;-83
2022/11/06 09:58:40;;;;;;;8.95;1.48;;;10.30;99.90;;;;;;5088185;28;20037;-84
2022/11/06 10:01:17;;;;;;;6.82;1.70;;;10.50;99.90;;;;;;5087296;28;20052;-85
2022/11/06 10:03:57;;;;;;;4.05;1.52;;;10.60;99.90;;;;;;5085031;28;20515;-83
2022/11/06 10:06:26;;;;;;;6.32;1.60;;;10.80;99.90;;;;;;5085964;28;20037;-85
2022/11/06 10:08:59;;;;;;;3.53;1.70;;;10.90;99.90;;;;;;5070959;28;20037;-84
2022/11/06 10:11:44;;;;;;;4.13;1.65;;;11.00;99.90;;;;;;5069921;28;20489;-84
2022/11/06 10:14:23;;;;;;;6.72;1.52;;;11.00;99.90;;;;;;5068610;28;20127;-84
2022/11/06 10:17:08;;;;;;;5.60;1.80;;;11.10;99.90;;;;;;5087360;28;20485;-84
2022/11/06 10:19:40;;;;;;;4.22;1.73;;;11.20;99.90;;;;;;5069199;28;20068;-84
2022/11/06 10:22:06;;;;;;;3.05;1.20;;;11.20;99.90;;;;;;5070748;28;20052;-84
2022/11/06 10:25:06;;;;;;;5.65;1.67;;;11.30;99.90;;;;;;5086729;28;20056;-84
2022/11/06 10:27:39;;;;;;;3.47;1.88;;;11.20;99.90;;;;;;5075489;28;20071;-84
2022/11/06 10:30:15;;;;;;;4.90;1.40;;;11.20;99.90;;;;;;5070601;28;20037;-84
2022/11/06 10:32:47;;;;;;;4.35;1.50;;;11.10;99.90;;;;;;5070780;28;20112;-83
2022/11/06 10:35:26;;;;;;;6.53;1.75;;;11.10;99.90;;;;;;5120731;28;20059;-84
2022/11/06 10:37:56;;;;;;;4.13;1.45;;;11.10;99.90;;;;;;5084725;28;20409;-84
2022/11/06 10:40:27;;;;;;;3.45;1.63;;;11.10;99.90;;;;;;5086063;28;20072;-84
2022/11/06 10:43:16;;;;;;;5.93;1.73;;;11.10;99.90;;;;;;5069933;28;20519;-85
2022/11/06 10:45:49;;;;;;;9.93;1.60;;;11.10;99.90;;;;;;5063561;28;20044;-84
2022/11/06 10:48:28;;;;;;;6.85;1.80;;;11.10;99.90;;;;;;5075154;28;20064;-84
2022/11/06 10:51:04;;;;;;;3.75;1.38;;;11.10;99.90;;;;;;5070387;28;20069;-85
2022/11/06 10:53:39;;;;;;;4.78;1.52;;;11.20;99.90;;;;;;5086870;28;20037;-84
2022/11/06 10:56:34;;;;;;;6.10;1.60;;;11.20;99.90;;;;;;5069883;28;20044;-84
2022/11/06 10:59:01;;;;;;;5.55;1.55;;;11.10;99.90;;;;;;5072811;28;20041;-85
2022/11/06 11:01:28;;;;;;;5.03;1.55;;;11.10;99.90;;;;;;5102944;28;20095;-85
2022/11/06 11:03:55;;;;;;;5.80;1.60;;;11.10;99.90;;;;;;5037219;28;20041;-84
2022/11/06 11:06:22;;;;;;;5.32;1.80;;;11.10;99.90;;;;;;5069651;28;20041;-83
2022/11/06 11:08:50;;;;;;;6.93;1.70;;;11.10;99.90;;;;;;5086701;28;20120;-84
2022/11/06 11:11:22;;;;;;;5.55;1.77;;;11.00;99.90;;;;;;5069375;28;20497;-84
2022/11/06 11:14:00;;;;;;;8.13;1.58;;;11.00;99.90;;;;;;5085663;28;20040;-84
2022/11/06 11:16:32;;;;;;;9.38;2.38;;;10.90;99.90;;;;;;5069366;28;20521;-84
2022/11/06 11:19:14;;;;;;;6.05;1.70;;;11.00;99.90;;;;;;5103173;28;20436;-84
2022/11/06 11:21:56;;;;;;;6.57;1.38;;;10.90;99.90;;;;;;5086563;28;20517;-84
2022/11/06 11:24:22;;;;;;;7.43;1.48;;;11.00;99.90;;;;;;5085869;28;20045;-84
2022/11/06 11:27:05;;;;;;;7.55;2.28;;;11.00;99.90;;;;;;5069518;28;20055;-84
2022/11/06 11:29:43;;;;;;;4.93;1.92;;;11.00;99.90;;;;;;5086264;28;20044;-83
2022/11/06 11:32:14;;;;;;;8.15;2.13;;;11.00;99.90;;;;;;5069651;28;20040;-84
2022/11/06 11:34:53;;;;;;;9.27;2.03;;;11.10;99.90;;;;;;5073979;28;20045;-84
2022/11/06 11:37:31;;;;;;;3.60;1.80;;;11.10;99.90;;;;;;5083184;28;20404;-83
2022/11/06 11:40:34;;;;;;;7.05;1.52;;;11.20;99.90;;;;;;5033127;28;20144;-84
2022/11/06 11:43:20;;;;;;;5.60;1.52;;;11.30;99.90;;;;;;5068645;28;20044;-84
2022/11/06 11:46:09;;;;;;;8.98;1.95;;;11.30;99.90;;;;;;5102879;28;20041;-84
2022/11/06 11:48:42;;;;;;;5.82;1.77;;;11.30;99.90;;;;;;5098973;28;20045;-84
2022/11/06 11:51:36;;;;;;;5.15;1.45;;;11.40;99.90;;;;;;5061337;28;20511;-84
2022/11/06 11:54:06;;;;;;;4.40;1.67;;;11.30;99.90;;;;;;5053289;28;20067;-84
2022/11/06 11:56:43;;;;;;;4.53;1.33;;;11.40;99.90;;;;;;5085139;28;20072;-84
2022/11/06 11:59:16;;;;;;;2.40;1.17;;;11.40;99.90;;;;;;5069352;28;20505;-84
2022/11/06 12:01:44;;;;;;;4.60;1.27;;;11.40;99.90;;;;;;5062607;28;20463;-85
2022/11/06 12:04:18;;;;;;;3.40;1.15;;;11.50;99.90;;;;;;5084543;28;20084;-83
2022/11/06 12:07:11;;;;;;;3.20;1.30;;;11.50;99.90;;;;;;5088427;28;20127;-85
2022/11/06 12:09:43;;;;;;;3.17;1.25;;;11.50;99.90;;;;;;5081066;28;20375;-86
2022/11/06 12:12:33;;;;;;;3.08;1.10;;;11.50;99.90;;;;;;5080147;28;20045;-85
2022/11/06 12:15:20;;;;;;;6.18;1.30;;;11.60;99.90;;;;;;5080117;28;20045;-85
2022/11/06 12:17:55;;;;;;;4.68;1.10;;;11.60;99.90;;;;;;5085506;28;20473;-85
2022/11/06 12:20:28;;;;;;;;;;;11.60;99.90;;;;;;5069470;28;20044;-85
2022/11/06 12:22:57;;;;;;;4.30;1.33;;;11.70;99.90;;;;;;5073945;28;19921;-87
2022/11/06 12:25:35;;;;;;;4.95;1.00;;;11.70;99.90;;;;;;5065155;28;20053;-87
2022/11/06 12:28:09;;;;;;;3.15;1.00;;;11.80;99.90;;;;;;5065990;28;20049;-86
2022/11/06 12:30:40;;;;;;;5.22;1.08;;;11.80;99.90;;;;;;5049188;28;20034;-86
2022/11/06 12:33:13;;;;;;;3.95;1.42;;;11.90;99.90;;;;;;5071067;28;20037;-86
2022/11/06 12:35:44;;;;;;;2.42;1.15;;;11.90;99.90;;;;;;5068847;28;20037;-86
2022/11/06 12:38:30;;;;;;;3.80;1.27;;;12.00;99.90;;;;;;5085593;28;20041;-86
2022/11/06 12:41:09;;;;;;;5.40;1.23;;;12.00;99.90;;;;;;5072369;28;20029;-85
2022/11/06 12:43:44;;;;;;;5.05;1.20;;;12.10;99.90;;;;;;5068661;28;20303;-87
2022/11/06 12:46:14;;;;;;;2.80;1.20;;;12.10;99.90;;;;;;5095688;28;20034;-86
2022/11/06 12:49:11;;;;;;;4.22;1.25;;;12.10;99.90;;;;;;5098494;28;20053;-87
2022/11/06 12:52:12;;;;;;;3.92;1.20;;;12.10;99.90;;;;;;5061813;28;20061;-85
2022/11/06 12:54:54;;;;;;;7.15;2.30;;;12.20;99.90;;;;;;5048866;28;20045;-86
2022/11/06 12:57:36;;;;;;;5.88;1.38;;;12.30;99.90;;;;;;5055772;28;20086;-85
2022/11/06 13:00:41;;;;;;;7.28;1.25;;;12.40;99.90;;;;;;5085572;28;20041;-86
2022/11/06 13:03:26;;;;;;;3.08;1.00;;;12.40;99.90;;;;;;5053011;28;20147;-86
2022/11/06 13:06:05;;;;;;;3.00;1.15;;;11.90;99.90;;;;;;5102598;28;20127;-90
2022/11/06 13:08:42;;;;;;;5.40;1.10;;;12.40;99.90;;;;;;5089002;28;20052;-87
2022/11/06 13:11:19;;;;;;;2.75;1.10;;;12.50;99.90;;;;;;5065502;28;20037;-83
2022/11/06 13:14:06;;;;;;;5.50;1.20;;;12.40;99.90;;;;;;5061845;28;20409;-83
2022/11/06 13:16:38;;;;;;;5.45;0.88;;;12.40;99.90;;;;;;5084585;28;20473;-83
2022/11/06 13:19:38;;;;;;;4.95;1.35;;;12.30;99.90;;;;;;5086479;28;20404;-83
2022/11/06 13:22:07;;;;;;;6.28;1.40;;;12.20;99.90;;;;;;5084012;28;20052;-83
2022/11/06 13:24:37;;;;;;;3.45;1.00;;;12.10;99.90;;;;;;5067376;28;20044;-84
2022/11/06 13:27:14;;;;;;;9.77;1.50;;;12.10;99.90;;;;;;5118113;28;20505;-83
2022/11/06 13:29:43;;;;;;;4.50;1.13;;;12.10;99.90;;;;;;5068792;28;20052;-84
2022/11/06 13:32:17;;;;;;;4.60;1.60;;;12.00;99.90;;;;;;5085644;28;20048;-85
2022/11/06 13:34:49;;;;;;;3.03;1.17;;;12.00;99.90;;;;;;5069162;28;20045;-85